createdAt,value
2019-03-18T00:00:33.702Z,0.13
2019-03-18T00:03:07.265Z,0.10
2019-03-18T00:05:36.044Z,0.10
2019-03-18T00:08:04.917Z,0.20
2019-03-18T00:10:34.535Z,0.20
2019-03-18T00:13:03.403Z,0.20
2019-03-18T00:15:32.299Z,0.20
2019-03-18T00:18:01.083Z,0.10
2019-03-18T00:20:29.909Z,0.20
2019-03-18T00:22:58.779Z,0.40
2019-03-18T00:25:27.608Z,0.10
2019-03-18T00:27:56.464Z,0.20
2019-03-18T00:30:25.290Z,0.13
2019-03-18T00:32:54.113Z,0.10
2019-03-18T00:35:23.023Z,0.20
2019-03-18T00:37:51.897Z,0.10
2019-03-18T00:40:21.311Z,0.20
2019-03-18T00:42:50.218Z,0.20
2019-03-18T00:45:19.175Z,0.10
2019-03-18T00:47:47.975Z,0.30
2019-03-18T00:50:17.245Z,0.20
2019-03-18T00:52:46.128Z,0.30
2019-03-18T00:55:15.097Z,0.30
2019-03-18T00:57:43.939Z,0.30
2019-03-18T01:00:19.805Z,0.23
2019-03-18T01:02:51.822Z,0.40
2019-03-18T01:05:20.633Z,0.33
2019-03-18T01:07:49.490Z,0.40
2019-03-18T01:10:18.550Z,0.63
2019-03-18T01:12:47.398Z,0.60
2019-03-18T01:15:27.583Z,0.50
2019-03-18T01:17:46.853Z,0.47
2019-03-18T01:20:16.234Z,0.63
2019-03-18T01:22:45.030Z,0.33
2019-03-18T01:25:13.913Z,0.40
2019-03-18T01:27:42.763Z,0.33
2019-03-18T01:30:13.225Z,0.20
2019-03-18T01:32:42.107Z,0.30
2019-03-18T01:35:11.359Z,0.40
2019-03-18T01:37:40.154Z,0.40
2019-03-18T01:40:13.534Z,0.50
2019-03-18T01:42:42.389Z,0.50
2019-03-18T01:45:11.939Z,0.43
2019-03-18T01:47:40.893Z,0.53
2019-03-18T01:50:11.389Z,0.30
2019-03-18T01:52:40.255Z,0.37
2019-03-18T01:55:09.240Z,0.43
2019-03-18T01:57:38.152Z,0.67
2019-03-18T02:00:09.653Z,0.60
2019-03-18T02:02:38.524Z,0.50
2019-03-18T02:05:09.206Z,0.63
2019-03-18T02:07:38.006Z,0.50
2019-03-18T02:10:09.830Z,0.30
2019-03-18T02:12:38.664Z,0.40
2019-03-18T02:15:10.501Z,0.70
2019-03-18T02:17:39.394Z,0.40
2019-03-18T02:20:12.720Z,0.40
2019-03-18T02:22:41.576Z,0.50
2019-03-18T02:25:11.065Z,0.77
2019-03-18T02:27:40.018Z,0.43
2019-03-18T02:30:11.631Z,0.50
2019-03-18T02:32:40.473Z,0.60
2019-03-18T02:35:09.313Z,0.97
2019-03-18T02:37:38.160Z,0.57
2019-03-18T02:40:11.240Z,0.57
2019-03-18T02:42:40.118Z,0.60
2019-03-18T02:45:12.893Z,0.30
2019-03-18T02:47:41.670Z,0.80
2019-03-18T02:50:10.795Z,0.90
2019-03-18T02:52:39.636Z,0.40
2019-03-18T02:55:09.396Z,0.60
2019-03-18T02:57:38.330Z,1.10
2019-03-18T03:00:12.514Z,0.70
2019-03-18T03:02:41.353Z,0.50
2019-03-18T03:05:12.155Z,0.50
2019-03-18T03:07:40.979Z,0.70
2019-03-18T03:10:11.441Z,0.60
2019-03-18T03:12:40.249Z,0.70
2019-03-18T03:15:11.393Z,0.40
2019-03-18T03:17:40.235Z,0.60
2019-03-18T03:20:12.034Z,0.60
2019-03-18T03:22:40.818Z,0.70
2019-03-18T03:25:10.688Z,0.60
2019-03-18T03:27:39.546Z,0.53
2019-03-18T03:30:13.342Z,0.70
2019-03-18T03:32:42.299Z,0.80
2019-03-18T03:35:11.347Z,1.00
2019-03-18T03:37:40.204Z,0.90
2019-03-18T03:40:10.684Z,0.57
2019-03-18T03:42:39.556Z,0.80
2019-03-18T03:45:13.001Z,0.90
2019-03-18T03:47:41.890Z,0.80
2019-03-18T03:50:12.301Z,0.90
2019-03-18T03:52:41.214Z,0.70
2019-03-18T03:55:11.414Z,1.13
2019-03-18T03:57:40.992Z,0.77
2019-03-18T04:00:14.318Z,1.03
2019-03-18T04:02:43.474Z,0.90
2019-03-18T04:05:12.320Z,0.60
2019-03-18T04:07:41.104Z,1.00
2019-03-18T04:10:14.121Z,0.90
2019-03-18T04:12:42.953Z,0.93
2019-03-18T04:15:13.313Z,1.20
2019-03-18T04:17:42.159Z,1.10
2019-03-18T04:20:16.598Z,0.90
2019-03-18T04:22:45.445Z,1.00
2019-03-18T04:25:14.303Z,1.17
2019-03-18T04:27:43.116Z,1.00
2019-03-18T04:30:15.844Z,1.07
2019-03-18T04:32:44.723Z,1.03
2019-03-18T04:35:13.609Z,1.27
2019-03-18T04:37:42.437Z,1.00
2019-03-18T04:40:11.866Z,0.83
2019-03-18T04:42:40.682Z,0.80
2019-03-18T04:45:10.863Z,0.90
2019-03-18T04:47:39.710Z,0.90
2019-03-18T04:50:10.702Z,0.83
2019-03-18T04:52:39.568Z,0.70
2019-03-18T04:55:08.815Z,1.00
2019-03-18T04:57:37.640Z,0.97
2019-03-18T05:00:08.866Z,1.03
2019-03-18T05:02:37.709Z,0.70
2019-03-18T05:05:06.530Z,0.87
2019-03-18T05:07:35.419Z,0.70
2019-03-18T05:10:06.041Z,0.73
2019-03-18T05:12:34.920Z,0.70
2019-03-18T05:15:04.437Z,0.73
2019-03-18T05:17:33.249Z,0.50
2019-03-18T05:20:02.107Z,0.70
2019-03-18T05:22:30.993Z,0.60
2019-03-18T05:24:59.830Z,0.60
2019-03-18T05:27:28.711Z,0.50
2019-03-18T05:29:57.591Z,0.50
2019-03-18T05:32:26.439Z,0.50
2019-03-18T05:34:55.314Z,0.60
2019-03-18T05:37:24.160Z,0.40
2019-03-18T05:39:53.054Z,0.50
2019-03-18T05:42:21.914Z,0.60
2019-03-18T05:44:50.690Z,0.60
2019-03-18T05:47:19.554Z,0.40
2019-03-18T05:49:48.458Z,0.40
2019-03-18T05:52:17.329Z,0.50
2019-03-18T05:54:46.178Z,0.50
2019-03-18T05:57:15.051Z,0.43
2019-03-18T05:59:43.931Z,0.50
2019-03-18T06:02:12.789Z,1.10
2019-03-18T06:04:41.650Z,1.57
2019-03-18T06:07:10.455Z,0.83
2019-03-18T06:09:39.310Z,0.80
2019-03-18T06:12:13.892Z,0.80
2019-03-18T06:14:42.769Z,0.60
2019-03-18T06:17:11.650Z,0.53
2019-03-18T06:19:40.489Z,0.70
2019-03-18T06:22:09.330Z,0.77
2019-03-18T06:24:38.190Z,0.50
2019-03-18T06:27:07.034Z,0.50
2019-03-18T06:29:35.870Z,0.70
2019-03-18T06:32:04.759Z,0.50
2019-03-18T06:34:33.630Z,0.50
2019-03-18T06:37:02.515Z,0.53
2019-03-18T06:39:31.354Z,0.47
2019-03-18T06:42:00.201Z,0.50
2019-03-18T06:44:29.109Z,0.50
2019-03-18T06:46:57.968Z,0.77
2019-03-18T06:49:26.844Z,0.80
2019-03-18T06:51:55.698Z,0.57
2019-03-18T06:54:24.559Z,0.70
2019-03-18T06:56:53.371Z,0.60
2019-03-18T06:59:22.213Z,0.60
2019-03-18T07:01:51.094Z,1.00
2019-03-18T07:04:19.966Z,0.50
2019-03-18T07:06:48.801Z,0.60
2019-03-18T07:09:17.637Z,0.60
2019-03-18T07:11:46.502Z,0.63
2019-03-18T07:14:15.329Z,0.60
2019-03-18T07:16:44.216Z,0.60
2019-03-18T07:19:13.098Z,0.90
2019-03-18T07:21:41.901Z,0.70
2019-03-18T07:24:10.782Z,0.73
2019-03-18T07:26:39.633Z,0.83
2019-03-18T07:29:08.546Z,0.73
2019-03-18T07:31:37.405Z,0.60
2019-03-18T07:34:06.259Z,0.50
2019-03-18T07:36:35.128Z,0.60
2019-03-18T07:39:05.725Z,0.63
2019-03-18T07:41:34.589Z,0.80
2019-03-18T07:44:08.824Z,0.57
2019-03-18T07:46:37.702Z,0.80
2019-03-18T07:49:06.513Z,0.70
2019-03-18T07:51:35.386Z,0.80
2019-03-18T07:54:04.348Z,0.70
2019-03-18T07:56:33.229Z,0.67
2019-03-18T07:59:02.070Z,0.80
2019-03-18T08:01:30.850Z,0.80
2019-03-18T08:03:59.761Z,0.70
2019-03-18T08:06:28.539Z,0.80
2019-03-18T08:08:57.429Z,0.70
2019-03-18T08:11:26.261Z,0.70
2019-03-18T08:13:55.129Z,0.70
2019-03-18T08:16:23.951Z,0.90
2019-03-18T08:18:52.836Z,0.70
2019-03-18T08:21:21.622Z,0.63
2019-03-18T08:23:50.475Z,0.57
2019-03-18T08:26:19.318Z,1.13
2019-03-18T08:28:48.118Z,0.80
2019-03-18T08:31:16.973Z,0.70
2019-03-18T08:33:45.821Z,0.60
2019-03-18T08:36:14.673Z,0.67
2019-03-18T08:38:43.528Z,0.80
2019-03-18T08:41:12.383Z,0.70
2019-03-18T08:43:41.213Z,0.60
2019-03-18T08:46:10.101Z,0.60
2019-03-18T08:48:38.895Z,1.00
2019-03-18T08:51:07.781Z,0.90
2019-03-18T08:53:36.590Z,1.00
2019-03-18T08:56:05.464Z,1.43
2019-03-18T08:58:34.345Z,0.77
2019-03-18T09:01:03.174Z,1.53
2019-03-18T09:03:32.007Z,0.60
2019-03-18T09:06:00.864Z,0.70
2019-03-18T09:08:29.722Z,0.70
2019-03-18T09:10:58.598Z,1.13
2019-03-18T09:13:27.426Z,0.60
2019-03-18T09:15:56.384Z,0.80
2019-03-18T09:18:25.224Z,0.70
2019-03-18T09:20:54.045Z,1.00
2019-03-18T09:23:22.888Z,1.10
2019-03-18T09:25:51.725Z,0.77
2019-03-18T09:28:22.256Z,0.93
2019-03-18T09:30:51.071Z,0.80
2019-03-18T09:33:19.954Z,1.07
2019-03-18T09:35:48.823Z,0.87
2019-03-18T09:38:17.691Z,1.20
2019-03-18T09:40:46.480Z,1.10
2019-03-18T09:43:15.345Z,0.90
2019-03-18T09:45:44.202Z,0.60
2019-03-18T09:48:13.110Z,0.90
2019-03-18T09:50:41.937Z,1.10
2019-03-18T09:53:10.759Z,1.27
2019-03-18T09:55:39.628Z,1.20
2019-03-18T09:58:08.459Z,0.73
2019-03-18T10:00:37.323Z,1.17
2019-03-18T10:03:06.145Z,1.13
2019-03-18T10:05:35.030Z,1.00
2019-03-18T10:08:03.905Z,1.23
2019-03-18T10:10:32.770Z,0.80
2019-03-18T10:13:01.588Z,0.63
2019-03-18T10:15:30.447Z,0.80
2019-03-18T10:17:59.313Z,0.87
2019-03-18T10:20:28.178Z,0.90
2019-03-18T10:22:56.987Z,0.93
2019-03-18T10:25:25.835Z,0.80
2019-03-18T10:27:54.746Z,0.80
2019-03-18T10:30:23.579Z,0.70
2019-03-18T10:32:52.493Z,1.23
2019-03-18T10:35:21.331Z,0.80
2019-03-18T10:37:50.194Z,1.00
2019-03-18T10:40:19.076Z,0.73
2019-03-18T10:42:47.900Z,0.70
2019-03-18T10:45:16.754Z,1.57
2019-03-18T10:47:45.634Z,0.70
2019-03-18T10:50:16.632Z,0.87
2019-03-18T10:52:45.623Z,0.77
2019-03-18T10:55:14.591Z,0.90
2019-03-18T10:57:43.434Z,0.70
2019-03-18T11:00:15.267Z,0.90
2019-03-18T11:02:45.219Z,0.80
2019-03-18T11:05:15.006Z,0.73
2019-03-18T11:07:43.883Z,0.67
2019-03-18T11:10:17.222Z,0.70
2019-03-18T11:12:46.036Z,0.57
2019-03-18T11:15:16.247Z,0.70
2019-03-18T11:17:45.045Z,0.80
2019-03-18T11:20:15.277Z,1.10
2019-03-18T11:22:44.588Z,0.87
2019-03-18T11:25:18.174Z,0.70
2019-03-18T11:27:46.967Z,1.00
2019-03-18T11:30:20.074Z,0.60
2019-03-18T11:32:48.917Z,1.10
2019-03-18T11:35:17.824Z,0.70
2019-03-18T11:37:46.707Z,0.93
2019-03-18T11:40:22.999Z,0.80
2019-03-18T11:42:51.830Z,0.80
2019-03-18T11:45:20.719Z,1.00
2019-03-18T11:47:49.699Z,1.10
2019-03-18T11:50:19.841Z,0.97
2019-03-18T11:52:48.716Z,0.60
2019-03-18T11:55:19.966Z,0.70
2019-03-18T11:57:48.950Z,0.60
2019-03-18T12:00:19.932Z,0.87
2019-03-18T12:02:48.770Z,1.13
2019-03-18T12:05:21.892Z,0.90
2019-03-18T12:07:50.750Z,1.10
2019-03-18T12:10:21.095Z,0.90
2019-03-18T12:12:49.958Z,1.00
2019-03-18T12:15:21.583Z,0.67
2019-03-18T12:17:50.695Z,0.70
2019-03-18T12:20:24.786Z,0.87
2019-03-18T12:22:50.065Z,0.80
2019-03-18T12:25:18.890Z,1.53
2019-03-18T12:27:47.777Z,0.60
2019-03-18T12:30:21.325Z,0.63
2019-03-18T12:32:50.224Z,0.70
2019-03-18T12:35:19.011Z,0.80
2019-03-18T12:37:47.926Z,0.80
2019-03-18T12:40:17.446Z,0.60
2019-03-18T12:42:46.375Z,1.07
2019-03-18T12:45:16.335Z,0.77
2019-03-18T12:47:45.241Z,0.80
2019-03-18T12:50:18.089Z,0.90
2019-03-18T12:52:46.935Z,0.50
2019-03-18T12:55:15.940Z,0.97
2019-03-18T12:57:44.751Z,0.90
2019-03-18T13:00:25.716Z,0.63
2019-03-18T13:02:54.586Z,0.70
2019-03-18T13:05:23.463Z,0.90
2019-03-18T13:08:01.690Z,0.67
2019-03-18T13:10:30.669Z,0.80
2019-03-18T13:12:59.519Z,1.07
2019-03-18T13:15:28.393Z,0.97
2019-03-18T13:17:57.212Z,1.20
2019-03-18T13:20:26.058Z,0.80
2019-03-18T13:22:54.960Z,0.70
2019-03-18T13:25:23.824Z,0.90
2019-03-18T13:27:52.685Z,0.70
2019-03-18T13:30:23.089Z,0.90
2019-03-18T13:32:51.966Z,0.77
2019-03-18T13:35:20.850Z,1.00
2019-03-18T13:37:49.764Z,1.10
2019-03-18T13:40:19.327Z,1.07
2019-03-18T13:42:48.228Z,1.00
2019-03-18T13:45:23.069Z,0.90
2019-03-18T13:47:51.956Z,1.10
2019-03-18T13:50:21.853Z,1.07
2019-03-18T13:52:50.785Z,0.80
2019-03-18T13:55:19.701Z,0.90
2019-03-18T13:57:48.598Z,1.00
2019-03-18T14:00:18.706Z,0.70
2019-03-18T14:02:47.740Z,0.80
2019-03-18T14:05:16.577Z,1.10
2019-03-18T14:07:58.619Z,0.90
2019-03-18T14:10:17.969Z,1.10
2019-03-18T14:12:46.773Z,0.90
2019-03-18T14:15:20.550Z,0.80
2019-03-18T14:17:49.380Z,1.10
2019-03-18T14:20:19.616Z,1.00
2019-03-18T14:22:48.485Z,1.10
2019-03-18T14:25:17.356Z,1.13
2019-03-18T14:27:46.203Z,0.80
2019-03-18T14:30:16.633Z,0.87
2019-03-18T14:32:45.628Z,0.80
2019-03-18T14:35:14.559Z,0.83
2019-03-18T14:37:43.479Z,0.83
2019-03-18T14:40:23.953Z,1.00
2019-03-18T14:42:52.811Z,0.80
2019-03-18T14:45:22.801Z,0.70
2019-03-18T14:47:51.764Z,0.70
2019-03-18T14:50:21.018Z,0.80
2019-03-18T14:52:49.975Z,0.90
2019-03-18T14:55:19.438Z,0.80
2019-03-18T14:57:48.359Z,0.77
2019-03-18T15:00:21.832Z,0.80
2019-03-18T15:02:50.775Z,0.93
2019-03-18T15:05:19.629Z,0.77
2019-03-18T15:07:48.471Z,0.80
2019-03-18T15:10:24.659Z,0.80
2019-03-18T15:12:53.524Z,0.83
2019-03-18T15:15:22.356Z,0.93
2019-03-18T15:17:51.159Z,0.60
2019-03-18T15:20:25.791Z,0.90
2019-03-18T15:22:54.595Z,1.00
2019-03-18T15:25:24.829Z,0.83
2019-03-18T15:27:53.741Z,0.97
2019-03-18T15:30:22.542Z,1.00
2019-03-18T15:32:51.405Z,1.17
2019-03-18T15:35:20.359Z,0.83
2019-03-18T15:37:49.211Z,0.90
2019-03-18T15:40:25.394Z,0.80
2019-03-18T15:42:54.281Z,1.10
2019-03-18T15:45:23.297Z,0.70
2019-03-18T15:47:52.127Z,1.23
2019-03-18T15:50:26.214Z,0.70
2019-03-18T15:52:55.075Z,0.90
2019-03-18T15:55:24.637Z,1.00
2019-03-18T15:57:53.806Z,0.83
2019-03-18T16:00:32.889Z,1.10
2019-03-18T16:03:01.834Z,1.10
2019-03-18T16:05:30.742Z,0.93
2019-03-18T16:07:59.595Z,0.93
2019-03-18T16:10:28.500Z,1.20
2019-03-18T16:13:00.403Z,0.90
2019-03-18T16:15:29.215Z,1.13
2019-03-18T16:17:58.120Z,1.00
2019-03-18T16:20:27.586Z,1.07
2019-03-18T16:22:56.596Z,0.83
2019-03-18T16:25:25.595Z,0.93
2019-03-18T16:27:54.463Z,1.10
2019-03-18T16:30:23.372Z,1.13
2019-03-18T16:32:52.452Z,1.10
2019-03-18T16:35:21.263Z,0.83
2019-03-18T16:37:50.160Z,0.80
2019-03-18T16:40:23.502Z,1.20
2019-03-18T16:42:52.340Z,0.90
2019-03-18T16:45:21.418Z,0.90
2019-03-18T16:47:50.190Z,0.80
2019-03-18T16:50:26.540Z,1.40
2019-03-18T16:52:55.480Z,0.97
2019-03-18T16:55:24.321Z,1.20
2019-03-18T16:57:53.140Z,1.13
2019-03-18T17:00:26.944Z,1.00
2019-03-18T17:02:55.910Z,1.20
2019-03-18T17:05:24.738Z,1.10
2019-03-18T17:07:54.396Z,1.20
2019-03-18T17:10:23.526Z,1.40
2019-03-18T17:12:52.415Z,1.30
2019-03-18T17:15:22.435Z,1.30
2019-03-18T17:17:51.271Z,1.20
2019-03-18T17:20:20.137Z,0.97
2019-03-18T17:22:50.117Z,0.60
2019-03-18T17:25:22.244Z,0.70
2019-03-18T17:27:51.156Z,0.93
2019-03-18T17:30:20.836Z,1.00
2019-03-18T17:32:49.743Z,0.93
2019-03-18T17:35:18.657Z,0.93
2019-03-18T17:37:47.610Z,0.90
2019-03-18T17:40:20.791Z,1.10
2019-03-18T17:42:49.593Z,0.77
2019-03-18T17:45:21.294Z,0.90
2019-03-18T17:47:50.249Z,0.90
2019-03-18T17:50:30.525Z,0.90
2019-03-18T17:53:03.752Z,1.03
2019-03-18T17:55:31.336Z,0.80
2019-03-18T17:58:00.185Z,0.73
2019-03-18T18:00:42.470Z,0.80
2019-03-18T18:03:11.344Z,0.87
2019-03-18T18:05:40.870Z,0.70
2019-03-18T18:08:09.749Z,0.73
2019-03-18T18:10:38.579Z,0.70
2019-03-18T18:13:07.401Z,1.20
2019-03-18T18:15:36.359Z,0.80
2019-03-18T18:18:05.261Z,0.80
2019-03-18T18:20:34.111Z,0.70
2019-03-18T18:23:13.701Z,0.73
2019-03-18T18:25:33.639Z,1.30
2019-03-18T18:28:02.465Z,0.60
2019-03-18T18:30:31.369Z,0.93
2019-03-18T18:33:00.214Z,1.50
2019-03-18T18:35:29.156Z,0.90
2019-03-18T18:37:58.094Z,0.70
2019-03-18T18:40:28.427Z,0.93
2019-03-18T18:42:58.934Z,0.67
2019-03-18T18:45:27.880Z,0.70
2019-03-18T18:47:56.693Z,0.90
2019-03-18T18:50:25.551Z,0.83
2019-03-18T18:52:54.405Z,0.77
2019-03-18T18:55:23.284Z,0.70
2019-03-18T18:57:52.166Z,0.70
2019-03-18T19:00:22.198Z,0.90
2019-03-18T19:02:51.021Z,0.80
2019-03-18T19:05:20.279Z,0.87
2019-03-18T19:07:49.184Z,0.83
2019-03-18T19:10:22.056Z,0.80
2019-03-18T19:12:50.911Z,1.00
2019-03-18T19:15:30.930Z,1.07
2019-03-18T19:17:59.827Z,0.90
2019-03-18T19:20:28.615Z,0.90
2019-03-18T19:22:57.470Z,0.90
2019-03-18T19:25:26.353Z,1.00
2019-03-18T19:27:55.222Z,0.90
2019-03-18T19:30:24.626Z,1.00
2019-03-18T19:32:53.594Z,1.20
2019-03-18T19:35:22.515Z,1.30
2019-03-18T19:37:52.877Z,1.23
2019-03-18T19:40:22.837Z,1.40
2019-03-18T19:42:51.708Z,1.10
2019-03-18T19:45:20.780Z,1.33
2019-03-18T19:47:49.632Z,1.20
2019-03-18T19:50:29.609Z,1.30
2019-03-18T19:52:58.456Z,1.10
2019-03-18T19:55:27.303Z,1.70
2019-03-18T19:57:56.155Z,1.23
2019-03-18T20:00:29.093Z,1.50
2019-03-18T20:02:57.900Z,1.47
2019-03-18T20:05:26.859Z,1.30
2019-03-18T20:07:55.695Z,1.37
2019-03-18T20:10:24.545Z,1.30
2019-03-18T20:12:53.600Z,1.40
2019-03-18T20:15:22.550Z,1.20
2019-03-18T20:17:51.419Z,1.60
2019-03-18T20:20:24.077Z,1.37
2019-03-18T20:22:52.934Z,1.30
2019-03-18T20:25:21.836Z,1.50
2019-03-18T20:27:50.635Z,1.40
2019-03-18T20:30:20.652Z,1.63
2019-03-18T20:32:49.608Z,1.53
2019-03-18T20:35:23.420Z,1.37
2019-03-18T20:37:52.614Z,1.40
2019-03-18T20:40:21.641Z,1.10
2019-03-18T20:42:50.586Z,1.10
2019-03-18T20:45:20.313Z,1.33
2019-03-18T20:47:49.202Z,1.57
2019-03-18T20:50:19.265Z,1.40
2019-03-18T20:52:48.080Z,1.40
2019-03-18T20:55:17.993Z,1.30
2019-03-18T20:57:46.855Z,1.60
2019-03-18T21:00:25.285Z,1.40
2019-03-18T21:02:54.100Z,1.40
2019-03-18T21:05:25.191Z,1.50
2019-03-18T21:07:53.539Z,1.40
2019-03-18T21:10:22.487Z,1.60
2019-03-18T21:12:51.296Z,1.90
2019-03-18T21:15:20.145Z,1.40
2019-03-18T21:17:48.991Z,1.50
2019-03-18T21:20:18.646Z,1.30
2019-03-18T21:22:47.580Z,1.60
2019-03-18T21:25:16.649Z,1.73
2019-03-18T21:27:45.455Z,1.80
2019-03-18T21:30:19.797Z,2.00
2019-03-18T21:32:48.741Z,1.77
2019-03-18T21:35:17.658Z,1.73
2019-03-18T21:37:46.667Z,1.90
2019-03-18T21:40:22.839Z,1.80
2019-03-18T21:42:51.669Z,1.80
2019-03-18T21:45:23.519Z,1.70
2019-03-18T21:47:52.357Z,2.30
2019-03-18T21:50:21.166Z,1.93
2019-03-18T21:52:50.023Z,1.80
2019-03-18T21:55:18.876Z,1.73
2019-03-18T21:57:47.706Z,2.00
2019-03-18T22:00:23.351Z,1.93
2019-03-18T22:02:52.184Z,1.90
2019-03-18T22:05:21.036Z,1.50
2019-03-18T22:07:49.862Z,1.50
2019-03-18T22:10:19.878Z,1.50
2019-03-18T22:12:48.966Z,1.60
2019-03-18T22:15:18.132Z,1.80
2019-03-18T22:17:47.070Z,1.60
2019-03-18T22:20:20.288Z,1.33
2019-03-18T22:22:49.092Z,1.27
2019-03-18T22:25:17.960Z,1.27
2019-03-18T22:27:46.823Z,1.30
2019-03-18T22:30:20.021Z,1.60
2019-03-18T22:32:48.935Z,1.80
2019-03-18T22:35:17.837Z,1.40
2019-03-18T22:37:46.659Z,1.20
2019-03-18T22:40:17.475Z,1.50
2019-03-18T22:42:46.301Z,1.50
2019-03-18T22:45:16.476Z,1.53
2019-03-18T22:47:45.340Z,1.47
2019-03-18T22:50:16.192Z,1.50
2019-03-18T22:52:45.061Z,1.37
2019-03-18T22:55:15.224Z,1.40
2019-03-18T22:57:44.305Z,1.63
2019-03-18T23:00:27.090Z,1.57
2019-03-18T23:02:55.959Z,1.30
2019-03-18T23:05:25.508Z,1.20
2019-03-18T23:07:55.389Z,1.60
2019-03-18T23:10:24.371Z,1.60
2019-03-18T23:12:53.280Z,1.60
2019-03-18T23:15:22.095Z,1.33
2019-03-18T23:17:50.938Z,1.43
2019-03-18T23:20:19.775Z,1.40
2019-03-18T23:22:48.638Z,1.30
2019-03-18T23:25:17.511Z,1.40
2019-03-18T23:27:46.336Z,1.60
2019-03-18T23:30:15.617Z,1.43
2019-03-18T23:32:44.569Z,2.00
2019-03-18T23:35:13.396Z,1.80
2019-03-18T23:37:42.293Z,1.90
2019-03-18T23:40:12.675Z,2.03
2019-03-18T23:42:41.489Z,1.73
2019-03-18T23:45:11.545Z,2.10
2019-03-18T23:47:40.370Z,2.00
2019-03-18T23:50:13.653Z,1.90
2019-03-18T23:52:42.537Z,2.17
2019-03-18T23:55:19.057Z,2.37
2019-03-18T23:57:42.203Z,1.90
